Time;durP1;ratioP1;P1;durP2;ratioP2;P2;SDS_P1;SDS_P2;PMS_P1;PMS_P2;Temp;Humidity;BMP_temperature;BMP_pressure;BME280_temperature;BME280_humidity;BME280_pressure;Samples;Min_cycle;Max_cycle;Signal;HPM_P1;HPM_P2
2022/07/10 00:00:06;;;;;;;;;;;;;;;-144.99;88.16;52321.72;5050190;28;20043;-74
2022/07/10 00:02:32;;;;;;;;;;;;;;;-144.99;88.03;52346.19;5047119;28;20068;-73
2022/07/10 00:05:00;;;;;;;;;;;;;;;-144.99;87.36;52309.50;5045837;28;19928;-73
2022/07/10 00:07:26;;;;;;;;;;;;;;;-144.99;87.40;52321.72;5049324;28;20004;-73
2022/07/10 00:09:53;;;;;;;;;;;;;;;-144.99;86.80;52305.41;5045574;28;19929;-73
2022/07/10 00:12:19;;;;;;;;;;;;;;;-144.99;86.28;52329.88;5047778;28;19928;-73
2022/07/10 00:14:46;;;;;;;;;;;;;;;-144.99;85.72;52325.81;5039281;28;20015;-73
2022/07/10 00:17:12;;;;;;;;;;;;;;;-144.99;85.10;52354.34;5041849;28;19931;-73
2022/07/10 00:19:38;;;;;;;;;;;;;;;-144.99;84.49;52333.94;5042957;28;19925;-74
2022/07/10 00:22:06;;;;;;;;;;;;;;;-144.99;84.36;52327.84;5043616;28;20035;-71
2022/07/10 00:24:33;;;;;;;;;;;;;;;-144.99;84.29;52329.88;5043245;28;20487;-74
2022/07/10 00:26:59;;;;;;;;;;;;;;;-144.99;84.52;52329.88;5042610;28;20202;-73
2022/07/10 00:29:25;;;;;;;;;;;;;;;-144.99;85.05;52356.38;5047084;28;19932;-73
2022/07/10 00:31:52;;;;;;;;;;;;;;;-144.99;85.19;52338.03;5057230;28;19929;-73
2022/07/10 00:34:18;;;;;;;;;;;;;;;-144.99;85.79;52338.03;5059720;28;19935;-73
2022/07/10 00:36:45;;;;;;;;;;;;;;;-144.99;86.05;52323.75;5060135;28;19933;-73
2022/07/10 00:39:12;;;;;;;;;;;;;;;-144.99;86.86;52352.28;5049347;28;20538;-73
2022/07/10 00:41:39;;;;;;;;;;;;;;;-144.99;86.96;52325.81;5049339;28;20021;-72
2022/07/10 00:44:05;;;;;;;;;;;;;;;-144.99;86.93;52301.34;5043885;28;20020;-73
2022/07/10 00:46:32;;;;;;;;;;;;;;;-144.99;86.68;52336.00;5044996;28;20384;-73
2022/07/10 00:48:59;;;;;;;;;;;;;;;-144.99;86.45;52319.69;4726757;22;9999732;-76
2022/07/10 00:51:27;;;;;;;;;;;;;;;-144.99;85.59;52358.41;5047768;28;20007;-73
2022/07/10 00:53:53;;;;;;;;;;;;;;;-144.99;85.26;52333.94;5047854;28;19929;-74
2022/07/10 00:56:23;;;;;;;;;;;;;;;-144.99;84.17;52327.84;5047460;28;20019;-73
2022/07/10 00:58:50;;;;;;;;;;;;;;;-144.99;83.85;52297.25;5043620;28;20022;-73
2022/07/10 01:01:17;;;;;;;;;;;;;;;-144.99;83.03;52317.66;5044575;28;20025;-73
2022/07/10 01:03:45;;;;;;;;;;;;;;;-144.99;82.40;52346.19;5042392;28;19925;-73
2022/07/10 01:06:12;;;;;;;;;;;;;;;-144.99;82.14;52325.81;5043180;28;19935;-71
2022/07/10 01:08:39;;;;;;;;;;;;;;;-144.99;81.84;52321.72;5041016;28;19959;-71
2022/07/10 01:11:05;;;;;;;;;;;;;;;-144.99;81.29;52356.38;5037657;28;19939;-70
2022/07/10 01:13:33;;;;;;;;;;;;;;;-144.99;80.77;52333.94;5032833;28;20456;-72
2022/07/10 01:16:00;;;;;;;;;;;;;;;-144.99;80.20;52333.94;5040586;28;20398;-71
2022/07/10 01:18:26;;;;;;;;;;;;;;;-144.99;80.32;52354.34;5043968;28;19929;-70
2022/07/10 01:20:54;;;;;;;;;;;;;;;-144.99;79.96;52366.56;5044153;28;19925;-71
2022/07/10 01:23:22;;;;;;;;;;;;;;;-144.99;79.78;52329.88;5049057;28;19933;-72
2022/07/10 01:25:49;;;;;;;;;;;;;;;-144.99;79.61;52307.47;5045235;28;19925;-71
2022/07/10 01:28:16;;;;;;;;;;;;;;;-144.99;79.43;52346.19;5037903;28;19984;-73
2022/07/10 01:30:42;;;;;;;;;;;;;;;-144.99;79.14;52346.19;5049962;28;20015;-72
2022/07/10 01:33:09;;;;;;;;;;;;;;;-144.99;79.07;52329.88;5049955;28;20311;-71
2022/07/10 01:35:35;;;;;;;;;;;;;;;-144.99;79.08;52350.25;5048266;28;20020;-72
2022/07/10 01:38:01;;;;;;;;;;;;;;;-144.99;78.93;52333.94;5045249;28;19971;-72
2022/07/10 01:40:29;;;;;;;;;;;;;;;-144.99;78.93;52309.50;5047992;28;19983;-72
2022/07/10 01:42:56;;;;;;;;;;;;;;;-144.99;78.99;52358.41;5051245;28;20025;-72
2022/07/10 01:45:22;;;;;;;;;;;;;;;-144.99;78.71;52329.88;5049016;28;20224;-73
2022/07/10 01:47:49;;;;;;;;;;;;;;;-144.99;78.71;52301.34;5050776;28;20412;-74
2022/07/10 01:50:15;;;;;;;;;;;;;;;-144.99;78.83;52338.03;5054305;28;19986;-74
2022/07/10 01:52:41;;;;;;;;;;;;;;;-144.99;78.57;52340.06;5051712;28;19924;-73
2022/07/10 01:55:08;;;;;;;;;;;;;;;-144.99;78.43;52325.81;5050896;28;19968;-72
2022/07/10 01:57:36;;;;;;;;;;;;;;;-144.99;78.45;52350.25;5052866;28;19961;-71
2022/07/10 02:00:03;;;;;;;;;;;;;;;-144.99;78.17;52358.41;5048670;28;19936;-72
2022/07/10 02:02:29;;;;;;;;;;;;;;;-144.99;77.94;52350.25;5047304;28;19935;-71
2022/07/10 02:04:55;;;;;;;;;;;;;;;-144.99;78.03;52338.03;5041822;28;19925;-71
2022/07/10 02:07:22;;;;;;;;;;;;;;;-144.99;78.08;52338.03;5043235;28;20370;-71
2022/07/10 02:09:48;;;;;;;;;;;;;;;-144.99;77.88;52342.09;5044643;28;20299;-72
2022/07/10 02:12:15;;;;;;;;;;;;;;;-144.99;77.88;52325.81;5046528;28;19924;-72
2022/07/10 02:14:43;;;;;;;;;;;;;;;-144.99;77.79;52338.03;5044670;28;19947;-70
2022/07/10 02:17:11;;;;;;;;;;;;;;;-144.99;77.68;52338.03;5043764;28;20271;-72
2022/07/10 02:19:37;;;;;;;;;;;;;;;-144.99;77.69;52348.22;5041603;28;19935;-72
2022/07/10 02:22:04;;;;;;;;;;;;;;;-144.99;77.49;52362.50;5041645;28;19924;-71
2022/07/10 02:24:30;;;;;;;;;;;;;;;-144.99;77.78;52358.41;5042835;28;19925;-71
2022/07/10 02:26:57;;;;;;;;;;;;;;;-144.99;78.24;52325.81;5042415;28;20341;-72
2022/07/10 02:29:24;;;;;;;;;;;;;;;-144.99;78.64;52348.22;5042170;28;19939;-71
2022/07/10 02:31:52;;;;;;;;;;;;;;;-144.99;79.05;52309.50;5041899;28;20566;-71
2022/07/10 02:34:18;;;;;;;;;;;;;;;-144.99;79.39;52358.41;5043619;28;20016;-72
2022/07/10 02:36:45;;;;;;;;;;;;;;;-144.99;80.34;52315.59;5044002;28;19933;-71
2022/07/10 02:39:11;;;;;;;;;;;;;;;-144.99;81.22;52346.19;5039719;28;19983;-71
2022/07/10 02:41:38;;;;;;;;;;;;;;;-144.99;81.19;52362.50;5040613;28;20336;-72
2022/07/10 02:44:04;;;;;;;;;;;;;;;-144.99;81.39;52317.66;5043187;28;20463;-72
2022/07/10 02:46:31;;;;;;;;;;;;;;;-144.99;81.66;52358.41;5045088;28;19968;-71
2022/07/10 02:48:59;;;;;;;;;;;;;;;-144.99;81.77;52313.56;5043070;28;19950;-71
2022/07/10 02:51:25;;;;;;;;;;;;;;;-144.99;81.97;52338.03;5048669;28;20011;-70
2022/07/10 02:53:51;;;;;;;;;;;;;;;-144.99;82.14;52333.94;5041242;28;20028;-71
2022/07/10 02:56:18;;;;;;;;;;;;;;;-144.99;81.95;52340.06;5048723;28;20364;-72
2022/07/10 02:58:44;;;;;;;;;;;;;;;-144.99;81.75;52333.94;5043379;28;19964;-71
2022/07/10 03:01:11;;;;;;;;;;;;;;;-144.99;82.08;52350.25;5048470;28;19944;-70
2022/07/10 03:03:37;;;;;;;;;;;;;;;-144.99;82.23;52358.41;5049675;28;20023;-72
2022/07/10 03:06:05;;;;;;;;;;;;;;;-144.99;81.84;52321.72;5048936;28;20170;-71
2022/07/10 03:08:31;;;;;;;;;;;;;;;-144.99;81.74;52354.34;5045200;28;19925;-71
2022/07/10 03:10:58;;;;;;;;;;;;;;;-144.99;81.58;52354.34;5044640;28;20400;-70
2022/07/10 03:13:24;;;;;;;;;;;;;;;-144.99;81.42;52305.41;5048697;28;20019;-71
2022/07/10 03:15:51;;;;;;;;;;;;;;;-144.99;80.93;52297.25;5042949;28;20023;-70
2022/07/10 03:18:17;;;;;;;;;;;;;;;-144.99;80.75;52370.63;5041511;28;19929;-71
2022/07/10 03:20:43;;;;;;;;;;;;;;;-144.99;80.40;52329.88;5044942;28;20455;-71
2022/07/10 03:23:11;;;;;;;;;;;;;;;-144.99;79.71;52329.88;5041284;28;19932;-70
2022/07/10 03:25:38;;;;;;;;;;;;;;;-144.99;79.37;52321.72;5039234;28;20330;-72
2022/07/10 03:28:04;;;;;;;;;;;;;;;-144.99;79.03;52362.50;5040376;28;19963;-72
2022/07/10 03:30:30;;;;;;;;;;;;;;;-144.99;78.39;52342.09;5046801;28;19960;-70
2022/07/10 03:32:57;;;;;;;;;;;;;;;-144.99;78.15;52333.94;5047206;28;19932;-72
2022/07/10 03:35:25;;;;;;;;;;;;;;;-144.99;77.48;52362.50;5047788;28;20348;-71
2022/07/10 03:37:51;;;;;;;;;;;;;;;-144.99;77.46;52321.72;5047871;28;20475;-71
2022/07/10 03:40:20;;;;;;;;;;;;;;;-144.99;77.26;52346.19;5049311;28;19972;-70
2022/07/10 03:42:46;;;;;;;;;;;;;;;-144.99;76.88;52360.44;5046995;28;19934;-69
2022/07/10 03:45:13;;;;;;;;;;;;;;;-144.99;76.95;52342.09;5046359;28;19995;-71
2022/07/10 03:47:39;;;;;;;;;;;;;;;-144.99;76.75;52342.09;5047999;28;20167;-72
2022/07/10 03:50:06;;;;;;;;;;;;;;;-144.99;76.44;52321.72;5044208;28;20025;-72
2022/07/10 03:52:32;;;;;;;;;;;;;;;-144.99;76.36;52325.81;5045163;28;20013;-72
2022/07/10 03:54:58;;;;;;;;;;;;;;;-144.99;76.25;52358.41;5047580;28;20038;-72
2022/07/10 04:00:11;;;;;;;;;;;;;;;-144.99;75.93;52336.00;5062447;28;19939;-71
2022/07/10 04:02:37;;;;;;;;;;;;;;;-144.99;75.88;52313.56;5049156;28;20013;-72
2022/07/10 04:05:06;;;;;;;;;;;;;;;-144.99;76.04;52333.94;5047525;28;19925;-71
2022/07/10 04:07:32;;;;;;;;;;;;;;;-144.99;75.69;52350.25;5049146;28;19924;-72
2022/07/10 04:09:59;;;;;;;;;;;;;;;-144.99;75.67;52336.00;5050567;28;20451;-71
2022/07/10 04:12:26;;;;;;;;;;;;;;;-144.99;75.64;52327.84;5046161;28;19975;-71
2022/07/10 04:14:53;;;;;;;;;;;;;;;-144.99;75.49;52356.38;5044390;28;19931;-71
2022/07/10 04:17:19;;;;;;;;;;;;;;;-144.99;75.39;52354.34;5044324;28;19925;-71
2022/07/10 04:19:46;;;;;;;;;;;;;;;-144.99;75.31;52338.03;5047677;28;19935;-72
2022/07/10 04:22:12;;;;;;;;;;;;;;;-144.99;75.49;52338.03;5049331;28;19933;-73
2022/07/10 04:24:39;;;;;;;;;;;;;;;-144.99;75.49;52315.59;5048522;28;19929;-72
2022/07/10 04:27:06;;;;;;;;;;;;;;;-144.99;75.31;52362.50;5048910;28;19951;-72
2022/07/10 04:29:34;;;;;;;;;;;;;;;-144.99;75.37;52331.91;5047324;28;20015;-73
2022/07/10 04:32:00;;;;;;;;;;;;;;;-144.99;75.86;52346.19;5042887;28;19929;-72
2022/07/10 04:34:27;;;;;;;;;;;;;;;-144.99;76.20;52329.88;5049393;28;19932;-73
2022/07/10 04:36:54;;;;;;;;;;;;;;;-144.99;76.11;52342.09;5048714;28;20055;-71
2022/07/10 04:39:20;;;;;;;;;;;;;;;-144.99;76.31;52338.03;5042306;28;20298;-72
2022/07/10 04:41:47;;;;;;;;;;;;;;;-144.99;76.10;52333.94;5043150;28;20395;-70
2022/07/10 04:44:13;;;;;;;;;;;;;;;-144.99;76.25;52333.94;5040894;28;19925;-70
2022/07/10 04:46:41;;;;;;;;;;;;;;;-144.99;75.97;52340.06;5043949;28;19928;-71
2022/07/10 04:49:07;;;;;;;;;;;;;;;-144.99;75.56;52346.19;5042579;28;20015;-72
2022/07/10 04:51:33;;;;;;;;;;;;;;;-144.99;75.09;52309.50;5047328;28;20101;-70
2022/07/10 04:54:00;;;;;;;;;;;;;;;-144.99;74.75;52350.25;5042507;28;19929;-71
2022/07/10 04:56:27;;;;;;;;;;;;;;;-144.99;74.57;52338.03;5038941;28;19988;-73
2022/07/10 04:58:53;;;;;;;;;;;;;;;-144.99;73.96;52342.09;5044297;28;19925;-70
2022/07/10 05:01:20;;;;;;;;;;;;;;;-144.99;74.02;52374.72;5040993;28;19947;-72
2022/07/10 05:03:47;;;;;;;;;;;;;;;-144.99;73.60;52297.25;5042175;28;19925;-71
2022/07/10 05:06:14;;;;;;;;;;;;;;;-144.99;73.37;52340.06;5043226;28;19931;-71
2022/07/10 05:08:40;;;;;;;;;;;;;;;-144.99;73.22;52342.09;5042629;28;20333;-71
2022/07/10 05:11:07;;;;;;;;;;;;;;;-144.99;72.49;52309.50;5044399;28;19932;-71
2022/07/10 05:13:33;;;;;;;;;;;;;;;-144.99;71.93;52329.88;5042232;28;20011;-72
2022/07/10 05:15:59;;;;;;;;;;;;;;;-144.99;71.14;52313.56;5046886;28;19933;-73
2022/07/10 05:18:26;;;;;;;;;;;;;;;-144.99;70.61;52321.72;5044303;28;20019;-72
2022/07/10 05:20:54;;;;;;;;;;;;;;;-144.99;70.23;52378.78;5044953;28;20002;-71
2022/07/10 05:23:20;;;;;;;;;;;;;;;-144.99;70.03;52293.19;5042342;28;20011;-72
2022/07/10 05:25:46;;;;;;;;;;;;;;;-144.99;69.84;52329.88;5046059;28;20421;-72
2022/07/10 05:28:14;;;;;;;;;;;;;;;-144.99;69.89;52350.25;5036551;28;19931;-72
2022/07/10 05:30:40;;;;;;;;;;;;;;;-144.99;69.95;52309.50;5042011;28;19987;-73
2022/07/10 05:33:07;;;;;;;;;;;;;;;-144.99;69.87;52329.88;5040060;28;19933;-71
2022/07/10 05:35:33;;;;;;;;;;;;;;;-144.99;69.64;52315.59;5044097;28;20023;-70
2022/07/10 05:38:01;;;;;;;;;;;;;;;-144.99;69.07;52299.31;5043519;28;20457;-70
2022/07/10 05:40:28;;;;;;;;;;;;;;;-144.99;68.36;52323.75;5043613;28;19932;-72
2022/07/10 05:42:54;;;;;;;;;;;;;;;-144.99;67.50;52268.72;5045651;28;20023;-72
2022/07/10 05:45:20;;;;;;;;;;;;;;;-144.99;66.59;52307.47;5041896;28;20028;-74
2022/07/10 05:47:47;;;;;;;;;;;;;;;-144.99;66.09;52321.72;5041398;28;19931;-73
2022/07/10 05:50:13;;;;;;;;;;;;;;;-144.99;66.57;52311.53;5044682;28;20018;-72
2022/07/10 05:52:40;;;;;;;;;;;;;;;-144.99;66.62;52291.16;5046124;28;20017;-74
2022/07/10 05:55:08;;;;;;;;;;;;;;;-144.99;66.54;52295.22;5040652;28;20008;-72
2022/07/10 05:57:35;;;;;;;;;;;;;;;-144.99;65.84;52309.50;5045307;28;19925;-72
2022/07/10 06:00:03;;;;;;;;;;;;;;;-144.99;65.14;52325.81;5042572;28;20408;-69
2022/07/10 06:02:29;;;;;;;;;;;;;;;-144.99;64.86;52270.78;5041104;28;20367;-71
2022/07/10 06:04:56;;;;;;;;;;;;;;;-144.99;64.51;52283.00;5041524;28;19980;-69
2022/07/10 06:07:22;;;;;;;;;;;;;;;-144.99;63.93;52315.59;5041844;28;19929;-70
2022/07/10 06:09:49;;;;;;;;;;;;;;;-144.99;63.62;52295.22;5041087;28;19929;-70
2022/07/10 06:12:17;;;;;;;;;;;;;;;-144.99;63.48;52311.53;5044274;28;20016;-73
2022/07/10 06:14:43;;;;;;;;;;;;;;;-144.99;63.55;52338.03;5046270;28;19992;-72
2022/07/10 06:17:09;;;;;;;;;;;;;;;-144.99;63.47;52321.72;5040926;28;19935;-74
2022/07/10 06:19:36;;;;;;;;;;;;;;;-144.99;64.32;52309.50;5045760;28;20247;-74
2022/07/10 06:24:46;;;;;;;;;;;;;;;-144.99;64.10;52315.59;5045162;28;19931;-74
2022/07/10 06:27:13;;;;;;;;;;;;;;;-144.99;63.01;52309.50;5040278;28;20384;-72
2022/07/10 06:29:40;;;;;;;;;;;;;;;-144.99;62.80;52333.94;5043744;28;19932;-72
2022/07/10 06:32:07;;;;;;;;;;;;;;;-144.99;62.11;52276.88;5042890;28;20028;-72
2022/07/10 06:34:34;;;;;;;;;;;;;;;-144.99;61.11;52301.34;5046797;28;20377;-74
2022/07/10 06:37:00;;;;;;;;;;;;;;;-144.99;60.86;52268.72;5044128;28;20069;-73
2022/07/10 06:39:27;;;;;;;;;;;;;;;-144.99;60.61;52270.78;5044434;28;19925;-72
2022/07/10 06:41:53;;;;;;;;;;;;;;;-144.99;60.30;52325.81;5046141;28;20023;-72
2022/07/10 06:44:21;;;;;;;;;;;;;;;-144.99;59.36;52262.63;5045787;28;20327;-71
2022/07/10 06:51:57;;;;;;;;;;;;;;;-144.99;58.65;52238.16;5063150;28;20395;-71
2022/07/10 06:54:23;;;;;;;;;;;;;;;-144.99;58.73;52289.13;5073043;28;19959;-71
2022/07/10 06:56:50;;;;;;;;;;;;;;;-144.99;58.22;52315.59;5072634;28;19931;-71
2022/07/10 06:59:16;;;;;;;;;;;;;;;-144.99;58.29;52289.13;5070842;28;19960;-71
2022/07/10 07:01:43;;;;;;;;;;;;;;;-144.99;57.47;52297.25;5052182;28;19979;-71
2022/07/10 07:04:11;;;;;;;;;;;;;;;-144.99;56.58;52301.34;5051756;28;19925;-71
2022/07/10 07:06:37;;;;;;;;;;;;;;;-144.99;56.38;52268.72;5050484;28;19924;-71
2022/07/10 07:09:04;;;;;;;;;;;;;;;-144.99;55.48;52280.97;5044664;28;20483;-72
2022/07/10 07:11:30;;;;;;;;;;;;;;;-144.99;55.71;52297.25;5045966;28;19982;-71
2022/07/10 07:13:56;;;;;;;;;;;;;;;-144.99;54.89;52295.22;5043264;28;19952;-71
2022/07/10 07:16:37;;;;;;;;;;;;;;;-144.99;53.01;52283.00;5045821;28;20000;-70
2022/07/10 07:19:04;;;;;;;;;;;;;;;-144.99;52.86;52199.44;5045796;28;20023;-71
2022/07/10 07:24:18;;;;;;;;;;;;;;;-144.99;51.08;52236.13;5050756;28;19932;-71
2022/07/10 07:26:44;;;;;;;;;;;;;;;-144.99;50.67;52227.97;5048229;28;20445;-72
2022/07/10 07:29:11;;;;;;;;;;;;;;;-144.99;50.14;52207.59;5049495;28;20390;-73
2022/07/10 07:31:37;;;;;;;;;;;;;;;-144.99;49.49;52215.75;5042983;28;20016;-74
2022/07/10 07:34:04;;;;;;;;;;;;;;;-144.99;49.75;52201.47;5044412;28;20367;-71
2022/07/10 07:36:32;;;;;;;;;;;;;;;-144.99;49.72;52276.88;5046175;28;19932;-73
2022/07/10 07:38:58;;;;;;;;;;;;;;;-144.99;49.47;52232.03;5045354;28;19929;-71
2022/07/10 07:41:25;;;;;;;;;;;;;;;-144.99;49.40;52258.53;5048437;28;19929;-74
2022/07/10 07:43:52;;;;;;;;;;;;;;;-144.99;49.27;52264.66;5041966;28;19935;-73
2022/07/10 07:46:18;;;;;;;;;;;;;;;-144.99;49.91;52258.53;5050758;28;19925;-73
2022/07/10 07:48:45;;;;;;;;;;;;;;;-144.99;49.67;52236.13;5043209;28;19980;-73
2022/07/10 07:51:11;;;;;;;;;;;;;;;-144.99;49.72;52248.34;5049382;28;20024;-71
2022/07/10 07:53:39;;;;;;;;;;;;;;;-144.99;48.98;52248.34;5044551;28;19940;-72
2022/07/10 07:56:06;;;;;;;;;;;;;;;-144.99;48.81;52244.28;5044581;28;20019;-73
2022/07/10 07:58:32;;;;;;;;;;;;;;;-144.99;49.68;52191.28;5045685;28;19935;-72
2022/07/10 08:00:59;;;;;;;;;;;;;;;-144.99;49.09;52211.66;5048221;28;20020;-72
2022/07/10 08:03:25;;;;;;;;;;;;;;;-144.99;49.13;52240.19;5047981;28;19956;-72
2022/07/10 08:05:51;;;;;;;;;;;;;;;-144.99;48.93;52227.97;5045111;28;19939;-72
2022/07/10 08:08:18;;;;;;;;;;;;;;;-144.99;49.26;52232.03;5048243;28;20009;-73
2022/07/10 08:10:46;;;;;;;;;;;;;;;-144.99;48.80;52238.16;5043122;28;19929;-71
2022/07/10 08:13:12;;;;;;;;;;;;;;;-144.99;48.30;52195.34;5046955;28;19983;-72
2022/07/10 08:15:39;;;;;;;;;;;;;;;-144.99;47.76;52207.59;5046198;28;19928;-72
2022/07/10 08:18:07;;;;;;;;;;;;;;;-144.99;47.42;52217.78;5041452;28;20015;-72
2022/07/10 08:20:33;;;;;;;;;;;;;;;-144.99;46.99;52195.34;5037437;28;19940;-72
2022/07/10 08:23:00;;;;;;;;;;;;;;;-144.99;47.83;52227.97;5046120;28;19925;-73
2022/07/10 08:25:26;;;;;;;;;;;;;;;-144.99;46.51;52260.56;5042196;28;20471;-71
2022/07/10 08:27:54;;;;;;;;;;;;;;;-144.99;47.27;52211.66;5044178;28;20032;-74
2022/07/10 08:30:21;;;;;;;;;;;;;;;-144.99;47.32;52223.88;5047107;28;20038;-74
2022/07/10 08:32:47;;;;;;;;;;;;;;;-144.99;47.17;52223.88;5042662;28;19925;-74
2022/07/10 08:35:14;;;;;;;;;;;;;;;-144.99;46.92;52219.81;5050233;28;19935;-74
2022/07/10 08:37:41;;;;;;;;;;;;;;;-144.99;46.60;52207.59;5037988;28;19925;-75
2022/07/10 08:40:09;;;;;;;;;;;;;;;-144.99;45.71;52236.13;5043050;28;19935;-75
2022/07/10 08:42:36;;;;;;;;;;;;;;;-144.99;45.97;52244.28;5024260;28;20021;-74
2022/07/10 08:45:03;;;;;;;;;;;;;;;-144.99;46.04;52236.13;5039634;28;19935;-75
2022/07/10 08:47:31;;;;;;;;;;;;;;;-144.99;45.92;52260.56;5041714;28;19932;-75
2022/07/10 08:49:58;;;;;;;;;;;;;;;-144.99;46.19;52227.97;5044226;28;19936;-74
2022/07/10 08:52:28;;;;;;;;;;;;;;;-144.99;45.73;52215.75;5045590;28;19971;-75
2022/07/10 08:54:55;;;;;;;;;;;;;;;-144.99;45.47;52219.81;5044515;28;19929;-75
2022/07/10 08:57:23;;;;;;;;;;;;;;;-144.99;45.83;52232.03;5049462;28;19932;-75
2022/07/10 08:59:49;;;;;;;;;;;;;;;-144.99;45.60;52203.50;5047419;28;19935;-75
2022/07/10 09:02:17;;;;;;;;;;;;;;;-144.99;45.59;52195.34;4353311;28;10000732;-75
2022/07/10 09:04:44;;;;;;;;;;;;;;;-144.99;45.13;52170.91;5049809;28;19929;-74
2022/07/10 09:07:10;;;;;;;;;;;;;;;-144.99;43.66;52187.19;5041333;28;20316;-75
2022/07/10 09:09:52;;;;;;;;;;;;;;;-144.99;43.18;52170.91;5045869;28;19934;-73
2022/07/10 09:12:18;;;;;;;;;;;;;;;-144.99;42.38;52179.06;5051496;28;19932;-75
2022/07/10 09:14:44;;;;;;;;;;;;;;;-144.99;42.47;52203.50;5061271;28;20028;-75
2022/07/10 09:17:11;;;;;;;;;;;;;;;-144.99;42.73;52195.34;5058366;28;19928;-75
2022/07/10 09:19:40;;;;;;;;;;;;;;;-144.99;42.80;52179.06;5059018;28;20108;-74
2022/07/10 09:22:07;;;;;;;;;;;;;;;-144.99;42.99;52201.47;5064040;28;20007;-76
2022/07/10 09:24:36;;;;;;;;;;;;;;;-144.99;42.96;52179.06;5057209;28;19988;-75
2022/07/10 09:27:03;;;;;;;;;;;;;;;-144.99;42.05;52181.09;5062969;28;19935;-75
2022/07/10 09:29:30;;;;;;;;;;;;;;;-144.99;42.26;52166.81;5059521;28;19982;-75
2022/07/10 09:31:56;;;;;;;;;;;;;;;-144.99;42.26;52170.91;5059963;28;19928;-76
2022/07/10 09:34:40;;;;;;;;;;;;;;;-144.99;42.18;52148.47;5056693;28;20434;-77
2022/07/10 09:37:23;;;;;;;;;;;;;;;-144.99;41.73;52162.75;5054932;28;20208;-75
2022/07/10 09:39:54;;;;;;;;;;;;;;;-144.99;40.45;52179.06;5060336;28;20417;-76
2022/07/10 09:42:31;;;;;;;;;;;;;;;-144.99;40.49;52158.66;5056842;28;20055;-75
2022/07/10 09:45:16;;;;;;;;;;;;;;;-144.99;40.23;52191.28;5060678;28;20107;-75
2022/07/10 09:47:44;;;;;;;;;;;;;;;-144.99;40.14;52191.28;5051566;28;19982;-75
2022/07/10 09:50:22;;;;;;;;;;;;;;;-144.99;40.99;52191.28;5049554;28;20012;-76
2022/07/10 09:52:50;;;;;;;;;;;;;;;-144.99;41.25;52170.91;5059288;28;20299;-75
2022/07/10 09:55:18;;;;;;;;;;;;;;;-144.99;41.09;52150.53;5058005;28;19963;-75
2022/07/10 09:57:46;;;;;;;;;;;;;;;-144.99;39.94;52117.91;5048997;28;20015;-75
2022/07/10 10:00:13;;;;;;;;;;;;;;;-144.99;40.27;52162.75;5046177;28;20400;-76
2022/07/10 10:02:40;;;;;;;;;;;;;;;-144.99;39.63;52162.75;5045461;28;19929;-75
2022/07/10 10:05:07;;;;;;;;;;;;;;;-144.99;39.17;52146.44;5048145;28;19948;-75
2022/07/10 10:07:38;;;;;;;;;;;;;;;-144.99;39.23;52142.38;5051181;28;19933;-75
2022/07/10 10:10:08;;;;;;;;;;;;;;;-144.99;39.19;52154.59;5052837;28;19928;-75
2022/07/10 10:12:36;;;;;;;;;;;;;;;-144.99;39.19;52134.22;5050708;28;20152;-75
2022/07/10 10:15:03;;;;;;;;;;;;;;;-144.99;39.53;52219.81;5056541;28;19931;-76
2022/07/10 10:17:29;;;;;;;;;;;;;;;-144.99;38.26;52160.72;5067357;28;19931;-76
2022/07/10 10:22:43;;;;;;;;;;;;;;;-144.99;39.08;52156.63;5052157;28;20320;-76
2022/07/10 10:25:10;;;;;;;;;;;;;;;-144.99;38.91;52172.94;5056196;28;19929;-77
2022/07/10 10:27:37;;;;;;;;;;;;;;;-144.99;39.28;52215.75;5059177;28;19975;-76
2022/07/10 10:30:04;;;;;;;;;;;;;;;-144.99;39.14;52117.91;5056270;28;19939;-76
2022/07/10 10:32:30;;;;;;;;;;;;;;;-144.99;38.73;52089.38;5048201;28;19963;-76
2022/07/10 10:34:57;;;;;;;;;;;;;;;-144.99;38.51;52170.91;5057306;28;19928;-75
2022/07/10 10:37:33;;;;;;;;;;;;;;;-144.99;38.78;52160.72;5060235;28;20020;-75
2022/07/10 10:40:01;;;;;;;;;;;;;;;-144.99;38.80;52130.13;5058388;28;19999;-76
2022/07/10 10:42:35;;;;;;;;;;;;;;;-144.99;39.35;52146.44;5056478;28;19935;-75
2022/07/10 10:45:20;;;;;;;;;;;;;;;-144.99;38.27;52113.84;5061267;28;19956;-74
2022/07/10 10:47:58;;;;;;;;;;;;;;;-144.99;38.21;52101.59;5044695;28;20023;-76
2022/07/10 10:50:37;;;;;;;;;;;;;;;-144.99;38.13;52130.13;5056393;28;20019;-76
2022/07/10 10:53:03;;;;;;;;;;;;;;;-144.99;38.66;52179.06;5048941;28;20015;-76
2022/07/10 10:55:31;;;;;;;;;;;;;;;-144.99;39.67;52113.84;5053793;28;20323;-77
2022/07/10 10:58:13;;;;;;;;;;;;;;;-144.99;40.05;52089.38;5060262;28;20015;-76
2022/07/10 11:00:40;;;;;;;;;;;;;;;-144.99;39.59;52107.72;5052728;28;19928;-76
2022/07/10 11:03:15;;;;;;;;;;;;;;;-144.99;38.75;52136.25;5059180;28;19924;-77
2022/07/10 11:05:43;;;;;;;;;;;;;;;-144.99;38.69;52113.84;5059071;28;19924;-76
2022/07/10 11:08:10;;;;;;;;;;;;;;;-144.99;39.10;52166.81;5053035;28;19976;-75
2022/07/10 11:10:39;;;;;;;;;;;;;;;-144.99;39.21;52158.66;5048002;28;20275;-76
2022/07/10 11:13:06;;;;;;;;;;;;;;;-144.99;39.04;52117.91;5057317;28;20423;-75
2022/07/10 11:15:33;;;;;;;;;;;;;;;-144.99;38.88;52093.44;5056432;28;19925;-76
2022/07/10 11:17:59;;;;;;;;;;;;;;;-144.99;38.53;52142.38;5053190;28;20400;-75
2022/07/10 11:20:26;;;;;;;;;;;;;;;-144.99;38.26;52146.44;5043647;28;20019;-75
2022/07/10 11:22:58;;;;;;;;;;;;;;;-144.99;38.55;52126.06;5057154;28;19925;-75
2022/07/10 11:25:35;;;;;;;;;;;;;;;-144.99;38.90;52162.75;5059131;28;19928;-75
2022/07/10 11:28:13;;;;;;;;;;;;;;;-144.99;39.77;52073.06;4700802;28;10000087;-74
2022/07/10 11:30:47;;;;;;;;;;;;;;;-144.99;38.97;52174.97;5038633;28;19931;-76
2022/07/10 11:33:13;;;;;;;;;;;;;;;-144.99;39.17;52083.25;5044505;28;20036;-74
2022/07/10 11:35:40;;;;;;;;;;;;;;;-144.99;39.61;52162.75;5048580;28;19925;-75
2022/07/10 11:38:06;;;;;;;;;;;;;;;-144.99;39.55;52166.81;5038747;28;19993;-75
2022/07/10 11:40:37;;;;;;;;;;;;;;;-144.99;39.98;52095.50;5045702;28;20446;-75
2022/07/10 11:43:05;;;;;;;;;;;;;;;-144.99;39.94;52166.81;5045050;28;19929;-74
2022/07/10 11:45:36;;;;;;;;;;;;;;;-144.99;40.40;52183.13;5041182;28;20340;-75
2022/07/10 11:48:03;;;;;;;;;;;;;;;-144.99;40.36;52193.31;5045927;28;20348;-74
2022/07/10 11:50:34;;;;;;;;;;;;;;;-144.99;40.08;52126.06;5047865;28;20578;-75
2022/07/10 11:53:01;;;;;;;;;;;;;;;-144.99;39.90;52181.09;5036475;28;20112;-75
2022/07/10 11:55:29;;;;;;;;;;;;;;;-144.99;39.72;52187.19;5044740;28;19935;-74
2022/07/10 11:57:55;;;;;;;;;;;;;;;-144.99;40.06;52158.66;5044534;28;19939;-76
2022/07/10 12:00:23;;;;;;;;;;;;;;;-144.99;40.44;52177.00;5044418;28;20215;-74
2022/07/10 12:02:51;;;;;;;;;;;;;;;-144.99;40.76;52170.91;5045937;28;19952;-76
2022/07/10 12:05:33;;;;;;;;;;;;;;;-144.99;41.43;52174.97;5050912;28;19991;-74
2022/07/10 12:08:00;;;;;;;;;;;;;;;-144.99;40.91;52130.13;5052388;28;19971;-76
2022/07/10 12:10:27;;;;;;;;;;;;;;;-144.99;40.45;52172.94;5052194;28;20019;-73
2022/07/10 12:12:53;;;;;;;;;;;;;;;-144.99;40.78;52170.91;5051596;28;19932;-74
2022/07/10 12:15:33;;;;;;;;;;;;;;;-144.99;40.82;52199.44;5061574;28;19964;-74
2022/07/10 12:18:00;;;;;;;;;;;;;;;-144.99;40.98;52168.84;5050948;28;20419;-74
2022/07/10 12:20:27;;;;;;;;;;;;;;;-144.99;41.24;52150.53;5048790;28;19936;-74
2022/07/10 12:22:55;;;;;;;;;;;;;;;-144.99;41.55;52124.03;5054392;28;19929;-74
2022/07/10 12:25:21;;;;;;;;;;;;;;;-144.99;40.22;52101.59;5045655;28;19932;-74
2022/07/10 12:27:48;;;;;;;;;;;;;;;-144.99;39.40;52089.38;5050694;28;19928;-73
2022/07/10 12:30:14;;;;;;;;;;;;;;;-144.99;39.28;52174.97;5052869;28;20024;-76
2022/07/10 12:32:41;;;;;;;;;;;;;;;-144.99;38.95;52138.28;5047517;28;20024;-72
2022/07/10 12:35:14;;;;;;;;;;;;;;;-144.99;38.99;52101.59;5048576;28;19924;-74
2022/07/10 12:37:48;;;;;;;;;;;;;;;-144.99;39.09;52097.53;5046075;28;19930;-74
2022/07/10 12:40:29;;;;;;;;;;;;;;;-144.99;39.43;52117.91;5053290;28;19940;-74
2022/07/10 12:43:02;;;;;;;;;;;;;;;-144.99;39.53;52154.59;5044540;28;20011;-75